Aeroporto :
LOGIN :

Iscrizione | Disclaimer

   EN    FR    IT 

 










Sommario :    VFR   VFR Marginale   IFR   IFR Intensivo   IFR Molto Intensivo
Visibilità : 
Base nubi : 
>= 8 km
>= 3000ft
5 / 8 km
1000 / 3000 ft
1500m / 5 km
500 / 1000 ft
800 / 1500m
200 / 500 ft
< 800m
< 200 ft
Simboli :   Temporali  Nebbia  Neve Forte  Precipitazioni Forti  Vento > 20 kt
SIGMETs :   Varie  Temporali  Ghiacco  Turbolenza  Onda orograficha  Ceneri Vulcaniche






- Altitudine del aeroporto : 23 ft
- Codice IATA : XFW


EDHI - Hamburg Finkenwerder

ULTIMO METAR :
  • 271550Z 08003KT 050V110 CAVOK 04/04 Q1022

METARs OBSOLETI :
  • 271520Z VRB03KT CAVOK 04/03 Q1021
  • 271450Z 08003KT 050V110 CAVOK 06/04 Q1021
  • 271420Z 10003KT 070V130 CAVOK 06/05 Q1021
  • 271350Z 09004KT 060V130 CAVOK 07/05 Q1022
  • 271320Z 08003KT 050V120 CAVOK 07/05 Q1021

TAF TAF EDHI
Valido dal 27 a 15 ore il 27 a 21 ore UTC


271400Z 2715/2721 09004KT CAVOK
TEMPO 2716/2718 3500 BR
BECMG 2718/2720 3500 BR BKN003
PROB40
TEMPO 2718/2721 1200



MetMap, La meteo Aeronautica in un colpo d'occhio ! - Copyright ORBIFLY Dicembre 2007 - Disclaimer

ORBIFLY MET'MAP TEAM :

Programmazione e sviluppo : Alexandra Zaïnal
Concezione : Baudouin d'Aumeries
Aiuto per la programmazione : Marc-Olivier Méhu
Supporto tecnico e logistico : Manuel Goepfert
Aiuto per la traduzione : Arnaldo La Scala

Contatto : metmap@orbifly.com




FONTI E CREDITI :

   NOAA